DLH168 EDDM-KDFW
Flight info
| Callsign | DLH168 |
|---|---|
| Flight time | N/A |
| Altitude | 34000 |
| Route | GIVMI6Q/08L GIVMI Y101 INBED DCT REKDI DCT LOHRE DCT ADKUV DCT LENDO DCT SOGRI DCT DENUT L610 KOPUL Q60 OKSAW DCT TEWXI DCT VATRY DCT SUTEX DCT RIKUL DCT DOGAL/M081F360 NATA ALLRY/N0462F380 N476B TOPPS DCT BGR J49 BUFFY DCT IZZEE DCT HACKS DCT HNN DCT ENGRA DCT BNA DCT TROVE DCT EDWAH DCT FEWWW BRDJE5 |
| Aircraft | A343/H-SDE2E3FGHIJ4J5M1RWXY/LB1D1 |
Departure
| Time | 2026-05-01 12:57 |
|---|---|
| Airport | Munich Airport (EDDM) |
Arrival
| Time | N/A |
|---|---|
| Airport | Dallas Fort Worth International Airport (KDFW) |
| Time | Latitude | Longitude | Altitude | Speed | Heading |
|---|---|---|---|---|---|
| 2026-05-01 12:04 | 48.35466 | 11.79732 | 1470 ft | 0 kts | 84° |
| 2026-05-01 12:38 | 48.35466 | 11.79731 | 1470 ft | 2 kts | 84° |
| 2026-05-01 12:39 | 48.35464 | 11.79704 | 1458 ft | 3 kts | 84° |
| 2026-05-01 12:39 | 48.35462 | 11.79675 | 1462 ft | 3 kts | 84° |
| 2026-05-01 12:39 | 48.35460 | 11.79649 | 1458 ft | 0 kts | 92° |
| 2026-05-01 12:39 | 48.35460 | 11.79639 | 1458 ft | 2 kts | 92° |
| 2026-05-01 12:40 | 48.35460 | 11.79630 | 1458 ft | 0 kts | 92° |
| 2026-05-01 12:40 | 48.35461 | 11.79615 | 1462 ft | 3 kts | 72° |
| 2026-05-01 12:40 | 48.35452 | 11.79588 | 1458 ft | 3 kts | 28° |
| 2026-05-01 12:41 | 48.35435 | 11.79580 | 1460 ft | 0 kts | 353° |
| 2026-05-01 12:45 | 48.35436 | 11.79580 | 1460 ft | 1 kts | 353° |
| 2026-05-01 12:46 | 48.35438 | 11.79578 | 1460 ft | 0 kts | 344° |
| 2026-05-01 12:46 | 48.35454 | 11.79568 | 1458 ft | 5 kts | 336° |
| 2026-05-01 12:46 | 48.35465 | 11.79545 | 1462 ft | 2 kts | 289° |
| 2026-05-01 12:46 | 48.35474 | 11.79506 | 1460 ft | 6 kts | 289° |
| 2026-05-01 12:47 | 48.35505 | 11.79445 | 1458 ft | 8 kts | 331° |
| 2026-05-01 12:47 | 48.35566 | 11.79433 | 1460 ft | 11 kts | 353° |
| 2026-05-01 12:47 | 48.35655 | 11.79418 | 1465 ft | 15 kts | 354° |
| 2026-05-01 12:47 | 48.35770 | 11.79398 | 1469 ft | 17 kts | 353° |
| 2026-05-01 12:48 | 48.35883 | 11.79369 | 1461 ft | 14 kts | 340° |
| 2026-05-01 12:48 | 48.35970 | 11.79339 | 1464 ft | 11 kts | 353° |
| 2026-05-01 12:48 | 48.35986 | 11.79336 | 1461 ft | 0 kts | 353° |
| 2026-05-01 12:49 | 48.35992 | 11.79335 | 1462 ft | 3 kts | 353° |
| 2026-05-01 12:50 | 48.36026 | 11.79329 | 1466 ft | 7 kts | 353° |
| 2026-05-01 12:50 | 48.36085 | 11.79318 | 1465 ft | 9 kts | 353° |
| 2026-05-01 12:50 | 48.36155 | 11.79294 | 1465 ft | 12 kts | 333° |
| 2026-05-01 12:50 | 48.36190 | 11.79191 | 1463 ft | 12 kts | 270° |
| 2026-05-01 12:51 | 48.36181 | 11.79066 | 1470 ft | 13 kts | 262° |
| 2026-05-01 12:51 | 48.36169 | 11.78921 | 1468 ft | 15 kts | 263° |
| 2026-05-01 12:51 | 48.36145 | 11.78578 | 1464 ft | 18 kts | 263° |
| 2026-05-01 12:52 | 48.36130 | 11.78402 | 1467 ft | 17 kts | 263° |
| 2026-05-01 12:52 | 48.36104 | 11.78065 | 1462 ft | 16 kts | 263° |
| 2026-05-01 12:52 | 48.36092 | 11.77907 | 1461 ft | 15 kts | 264° |
| 2026-05-01 12:53 | 48.36071 | 11.77618 | 1464 ft | 13 kts | 263° |
| 2026-05-01 12:53 | 48.36061 | 11.77489 | 1460 ft | 12 kts | 263° |
| 2026-05-01 12:53 | 48.36051 | 11.77366 | 1464 ft | 11 kts | 263° |
| 2026-05-01 12:54 | 48.36042 | 11.77252 | 1469 ft | 11 kts | 263° |
| 2026-05-01 12:54 | 48.36025 | 11.77120 | 1463 ft | 0 kts | 254° |
| 2026-05-01 12:55 | 48.36010 | 11.77018 | 1469 ft | 13 kts | 260° |
| 2026-05-01 12:55 | 48.36007 | 11.76877 | 1461 ft | 15 kts | 284° |
| 2026-05-01 12:55 | 48.36089 | 11.76803 | 1461 ft | 16 kts | 352° |
| 2026-05-01 12:56 | 48.36224 | 11.76811 | 1466 ft | 22 kts | 17° |
| 2026-05-01 12:56 | 48.36294 | 11.76963 | 1461 ft | 13 kts | 85° |
| 2026-05-01 12:56 | 48.36316 | 11.77240 | 1467 ft | 54 kts | 83° |
| 2026-05-01 12:56 | 48.36382 | 11.78110 | 1455 ft | 112 kts | 83° |
| 2026-05-01 12:57 | 48.36488 | 11.79505 | 1470 ft | 157 kts | 84° |
| 2026-05-01 12:57 | 48.36770 | 11.83001 | 2618 ft | 162 kts | 81° |
| 2026-05-01 12:57 | 48.37116 | 11.84640 | 3227 ft | 172 kts | 62° |
| 2026-05-01 12:58 | 48.38008 | 11.85974 | 3588 ft | 196 kts | 30° |
| 2026-05-01 12:58 | 48.39491 | 11.86437 | 3685 ft | 246 kts | 360° |
| 2026-05-01 12:58 | 48.41256 | 11.85683 | 3654 ft | 273 kts | 335° |
| 2026-05-01 12:59 | 48.44033 | 11.81713 | 4242 ft | 291 kts | 309° |
| 2026-05-01 12:59 | 48.45319 | 11.79344 | 4636 ft | 312 kts | 311° |
| 2026-05-01 12:59 | 48.48311 | 11.74159 | 5200 ft | 343 kts | 312° |
| 2026-05-01 13:00 | 48.51395 | 11.68782 | 6240 ft | 337 kts | 312° |
| 2026-05-01 13:00 | 48.52924 | 11.66106 | 7179 ft | 337 kts | 312° |
| 2026-05-01 13:01 | 48.55910 | 11.60710 | 9140 ft | 331 kts | 312° |
| 2026-05-01 13:01 | 48.57336 | 11.58055 | 10063 ft | 330 kts | 311° |
| 2026-05-01 13:01 | 48.60381 | 11.52797 | 11512 ft | 333 kts | 315° |
| 2026-05-01 13:02 | 48.62009 | 11.50175 | 11662 ft | 355 kts | 316° |
| 2026-05-01 13:07 | 49.10822 | 11.08588 | 25624 ft | 385 kts | 344° |
| 2026-05-01 13:07 | 49.13382 | 11.07287 | 26206 ft | 384 kts | 343° |
| 2026-05-01 13:07 | 49.15879 | 11.06006 | 26758 ft | 383 kts | 343° |
| 2026-05-01 13:08 | 49.18409 | 11.04711 | 27338 ft | 382 kts | 343° |
| 2026-05-01 13:08 | 49.20942 | 11.03420 | 27881 ft | 381 kts | 343° |
| 2026-05-01 13:08 | 49.23454 | 11.02134 | 28422 ft | 380 kts | 343° |
| 2026-05-01 13:08 | 49.25927 | 11.00862 | 28953 ft | 379 kts | 343° |
| 2026-05-01 13:09 | 49.28432 | 10.99570 | 29447 ft | 378 kts | 343° |
| 2026-05-01 13:09 | 49.30918 | 10.98282 | 29957 ft | 377 kts | 343° |
| 2026-05-01 13:09 | 49.33405 | 10.96992 | 30427 ft | 376 kts | 343° |
| 2026-05-01 13:09 | 49.35865 | 10.95601 | 30790 ft | 376 kts | 333° |
| 2026-05-01 13:10 | 49.38006 | 10.93316 | 30918 ft | 386 kts | 319° |
| 2026-05-01 13:10 | 49.39927 | 10.90390 | 31201 ft | 388 kts | 316° |
| 2026-05-01 13:10 | 49.41781 | 10.87382 | 31590 ft | 386 kts | 315° |
| 2026-05-01 13:10 | 49.43573 | 10.84364 | 31972 ft | 385 kts | 314° |
| 2026-05-01 13:11 | 49.45337 | 10.81275 | 32335 ft | 384 kts | 313° |
| 2026-05-01 13:11 | 49.47072 | 10.78152 | 32659 ft | 382 kts | 313° |
| 2026-05-01 13:11 | 49.48786 | 10.75020 | 32995 ft | 381 kts | 312° |
| 2026-05-01 13:11 | 49.50482 | 10.71874 | 33287 ft | 380 kts | 311° |
| 2026-05-01 13:12 | 49.52167 | 10.68718 | 33471 ft | 382 kts | 311° |
| 2026-05-01 13:12 | 49.53845 | 10.65557 | 33595 ft | 387 kts | 311° |
| 2026-05-01 13:12 | 49.55557 | 10.62315 | 33668 ft | 391 kts | 311° |
| 2026-05-01 13:13 | 49.58879 | 10.55974 | 33786 ft | 369 kts | 311° |
| 2026-05-01 13:13 | 49.60460 | 10.52923 | 33801 ft | 357 kts | 311° |
| 2026-05-01 13:13 | 49.61999 | 10.49956 | 33730 ft | 351 kts | 311° |
| 2026-05-01 13:13 | 49.63530 | 10.46979 | 33600 ft | 355 kts | 309° |
| 2026-05-01 13:14 | 49.65017 | 10.43908 | 33564 ft | 358 kts | 308° |
| 2026-05-01 13:14 | 49.66448 | 10.40828 | 33709 ft | 357 kts | 308° |
| 2026-05-01 13:14 | 49.67887 | 10.37695 | 33766 ft | 358 kts | 308° |
| 2026-05-01 13:15 | 49.70770 | 10.31372 | 33806 ft | 361 kts | 306° |
| 2026-05-01 13:15 | 49.73603 | 10.24918 | 33820 ft | 369 kts | 306° |
| 2026-05-01 13:16 | 49.76498 | 10.18317 | 33811 ft | 367 kts | 306° |
| 2026-05-01 13:16 | 49.79324 | 10.11865 | 33818 ft | 360 kts | 306° |
| 2026-05-01 13:17 | 49.84967 | 9.98972 | 33802 ft | 364 kts | 306° |
| 2026-05-01 13:18 | 49.89196 | 9.89266 | 33807 ft | 360 kts | 306° |
| 2026-05-01 13:18 | 49.91992 | 9.82829 | 33801 ft | 361 kts | 306° |
| 2026-05-01 13:19 | 49.94785 | 9.76374 | 33807 ft | 361 kts | 306° |
| 2026-05-01 13:20 | 49.98970 | 9.66666 | 33805 ft | 362 kts | 305° |
| 2026-05-01 13:20 | 50.01793 | 9.60119 | 33795 ft | 365 kts | 305° |
| 2026-05-01 13:21 | 50.05680 | 9.50040 | 33821 ft | 363 kts | 291° |
| 2026-05-01 13:21 | 50.07319 | 9.42538 | 33763 ft | 374 kts | 289° |
| 2026-05-01 13:22 | 50.08921 | 9.34618 | 33601 ft | 391 kts | 289° |
| 2026-05-01 13:22 | 50.09703 | 9.30553 | 33773 ft | 393 kts | 288° |
| 2026-05-01 13:22 | 50.10474 | 9.26449 | 33905 ft | 397 kts | 288° |
| 2026-05-01 13:23 | 50.11996 | 9.18082 | 33971 ft | 410 kts | 287° |
| 2026-05-01 13:23 | 50.13563 | 9.09300 | 33959 ft | 427 kts | 287° |
| 2026-05-01 13:24 | 50.15175 | 9.00169 | 33954 ft | 446 kts | 286° |
| 2026-05-01 13:25 | 50.17673 | 8.85807 | 33942 ft | 466 kts | 286° |
| 2026-05-01 13:25 | 50.19345 | 8.76028 | 33931 ft | 463 kts | 286° |
| 2026-05-01 13:26 | 50.21002 | 8.66357 | 33927 ft | 463 kts | 286° |
| 2026-05-01 13:26 | 50.22644 | 8.56667 | 33933 ft | 463 kts | 285° |
| 2026-05-01 13:27 | 50.24282 | 8.46921 | 33922 ft | 462 kts | 286° |
| 2026-05-01 13:27 | 50.26723 | 8.32371 | 33914 ft | 464 kts | 285° |
| 2026-05-01 13:28 | 50.29149 | 8.17788 | 33927 ft | 461 kts | 285° |
| 2026-05-01 13:29 | 50.32342 | 7.98336 | 33915 ft | 463 kts | 285° |
| 2026-05-01 13:31 | 50.37070 | 7.69162 | 33923 ft | 462 kts | 284° |
| 2026-05-01 13:32 | 50.40943 | 7.44791 | 33913 ft | 461 kts | 284° |
| 2026-05-01 13:33 | 50.44513 | 7.22055 | 33916 ft | 461 kts | 283° |
| 2026-05-01 13:34 | 50.47537 | 7.02488 | 33900 ft | 461 kts | 283° |
| 2026-05-01 13:35 | 50.49785 | 6.87837 | 33890 ft | 462 kts | 284° |
| 2026-05-01 13:36 | 50.52618 | 6.73362 | 33880 ft | 463 kts | 288° |
| 2026-05-01 13:36 | 50.55735 | 6.59007 | 33865 ft | 461 kts | 289° |
| 2026-05-01 13:37 | 50.57836 | 6.49438 | 33854 ft | 463 kts | 288° |
| 2026-05-01 13:37 | 50.59940 | 6.39842 | 33861 ft | 465 kts | 288° |
| 2026-05-01 13:38 | 50.62811 | 6.25349 | 33856 ft | 461 kts | 283° |
| 2026-05-01 13:39 | 50.64380 | 6.15561 | 33850 ft | 462 kts | 283° |
| 2026-05-01 13:39 | 50.65898 | 6.05700 | 33859 ft | 464 kts | 282° |
| 2026-05-01 13:40 | 50.67414 | 5.95767 | 33846 ft | 466 kts | 282° |
| 2026-05-01 13:40 | 50.68891 | 5.85841 | 33844 ft | 466 kts | 282° |
| 2026-05-01 13:41 | 50.70365 | 5.75884 | 33845 ft | 465 kts | 282° |
| 2026-05-01 13:41 | 50.71826 | 5.65974 | 33844 ft | 465 kts | 281° |
| 2026-05-01 13:42 | 50.73280 | 5.56021 | 33853 ft | 466 kts | 282° |
| 2026-05-01 13:42 | 50.74729 | 5.46040 | 33843 ft | 468 kts | 282° |
| 2026-05-01 13:43 | 50.76173 | 5.36026 | 33843 ft | 466 kts | 281° |
| 2026-05-01 13:43 | 50.77602 | 5.26030 | 33842 ft | 464 kts | 282° |
| 2026-05-01 13:44 | 50.79015 | 5.16093 | 33825 ft | 468 kts | 282° |
| 2026-05-01 13:44 | 50.80720 | 5.06094 | 34243 ft | 477 kts | 290° |
| 2026-05-01 13:44 | 50.82048 | 5.01265 | 34584 ft | 477 kts | 293° |
| 2026-05-01 13:45 | 50.83455 | 4.96503 | 34938 ft | 477 kts | 294° |
| 2026-05-01 13:45 | 50.84886 | 4.91782 | 35280 ft | 476 kts | 294° |
| 2026-05-01 13:45 | 50.86322 | 4.87101 | 35628 ft | 476 kts | 295° |
| 2026-05-01 13:45 | 50.87775 | 4.82413 | 35750 ft | 470 kts | 295° |
| 2026-05-01 13:46 | 50.89211 | 4.77811 | 35806 ft | 463 kts | 295° |
| 2026-05-01 13:46 | 50.92070 | 4.68673 | 35855 ft | 462 kts | 295° |
| 2026-05-01 13:47 | 50.94944 | 4.59455 | 35855 ft | 472 kts | 295° |
| 2026-05-01 13:47 | 50.97852 | 4.50111 | 35845 ft | 470 kts | 295° |
| 2026-05-01 13:48 | 51.00726 | 4.40854 | 35855 ft | 468 kts | 295° |
| 2026-05-01 13:48 | 51.03598 | 4.31565 | 35850 ft | 468 kts | 295° |
| 2026-05-01 13:49 | 51.06459 | 4.22278 | 35842 ft | 470 kts | 294° |
| 2026-05-01 13:49 | 51.09331 | 4.12922 | 35841 ft | 469 kts | 294° |
| 2026-05-01 13:50 | 51.12190 | 4.03571 | 35834 ft | 468 kts | 294° |
| 2026-05-01 13:50 | 51.15000 | 3.94343 | 35816 ft | 469 kts | 294° |
| 2026-05-01 13:51 | 51.17686 | 3.85485 | 35820 ft | 469 kts | 294° |
| 2026-05-01 13:51 | 51.20488 | 3.76216 | 35817 ft | 470 kts | 294° |
| 2026-05-01 13:52 | 51.23084 | 3.66662 | 35816 ft | 469 kts | 285° |
| 2026-05-01 13:52 | 51.24796 | 3.56631 | 35815 ft | 466 kts | 281° |
| 2026-05-01 13:53 | 51.26203 | 3.46718 | 35811 ft | 449 kts | 279° |
| 2026-05-01 13:53 | 51.28078 | 3.32291 | 35830 ft | 446 kts | 279° |
| 2026-05-01 13:54 | 51.29327 | 3.22488 | 35833 ft | 453 kts | 279° |
| 2026-05-01 13:54 | 51.30573 | 3.12632 | 35826 ft | 451 kts | 279° |
| 2026-05-01 13:55 | 51.31805 | 3.02841 | 35825 ft | 448 kts | 279° |
| 2026-05-01 13:55 | 51.33019 | 2.93118 | 35820 ft | 449 kts | 279° |
| 2026-05-01 13:56 | 51.34239 | 2.83292 | 35820 ft | 451 kts | 278° |
| 2026-05-01 13:56 | 51.35460 | 2.73466 | 35813 ft | 449 kts | 278° |
| 2026-05-01 13:57 | 51.36468 | 2.65316 | 35796 ft | 449 kts | 278° |
| 2026-05-01 13:57 | 51.37876 | 2.53838 | 35806 ft | 450 kts | 278° |
| 2026-05-01 13:58 | 51.39072 | 2.44003 | 35821 ft | 450 kts | 278° |
| 2026-05-01 13:58 | 51.40261 | 2.34164 | 35813 ft | 449 kts | 278° |
| 2026-05-01 13:59 | 51.41440 | 2.24414 | 35815 ft | 449 kts | 278° |
| 2026-05-01 13:59 | 51.42634 | 2.14588 | 35818 ft | 450 kts | 278° |
| 2026-05-01 14:00 | 51.43824 | 2.04754 | 35816 ft | 450 kts | 278° |
| 2026-05-01 14:00 | 51.45000 | 1.94913 | 35831 ft | 448 kts | 277° |
| 2026-05-01 14:01 | 51.46160 | 1.85085 | 35818 ft | 450 kts | 277° |
| 2026-05-01 14:01 | 51.47306 | 1.75215 | 35826 ft | 451 kts | 277° |
| 2026-05-01 14:02 | 51.48436 | 1.65331 | 35821 ft | 450 kts | 277° |
| 2026-05-01 14:02 | 51.49564 | 1.55457 | 35820 ft | 449 kts | 277° |
| 2026-05-01 14:03 | 51.50675 | 1.45655 | 35816 ft | 450 kts | 277° |
| 2026-05-01 14:03 | 51.51786 | 1.35775 | 35818 ft | 450 kts | 277° |
| 2026-05-01 14:04 | 51.52889 | 1.25867 | 35803 ft | 450 kts | 276° |
| 2026-05-01 14:04 | 51.53775 | 1.17582 | 35801 ft | 448 kts | 275° |
| 2026-05-01 14:05 | 51.54678 | 1.06040 | 35806 ft | 448 kts | 273° |
| 2026-05-01 14:05 | 51.55351 | 0.96083 | 35803 ft | 448 kts | 272° |
| 2026-05-01 14:06 | 51.55991 | 0.86124 | 35809 ft | 448 kts | 272° |
| 2026-05-01 14:06 | 51.56616 | 0.76135 | 35811 ft | 449 kts | 272° |
| 2026-05-01 14:07 | 51.57229 | 0.66159 | 35807 ft | 449 kts | 272° |
| 2026-05-01 14:08 | 51.58134 | 0.51201 | 35799 ft | 446 kts | 272° |
| 2026-05-01 14:08 | 51.58719 | 0.41246 | 35800 ft | 448 kts | 272° |
| 2026-05-01 14:09 | 51.59298 | 0.31268 | 35782 ft | 448 kts | 272° |
| 2026-05-01 14:09 | 51.59870 | 0.21285 | 35776 ft | 447 kts | 272° |
| 2026-05-01 14:10 | 51.60430 | 0.11390 | 35777 ft | 447 kts | 272° |
| 2026-05-01 14:10 | 51.60984 | 0.01412 | 35785 ft | 447 kts | 272° |
| 2026-05-01 14:11 | 51.61531 | -0.08536 | 35778 ft | 448 kts | 272° |
| 2026-05-01 14:11 | 51.62429 | -0.23459 | 35774 ft | 447 kts | 272° |
| 2026-05-01 14:12 | 51.63037 | -0.33420 | 35778 ft | 448 kts | 272° |
| 2026-05-01 14:12 | 51.63635 | -0.43335 | 35782 ft | 448 kts | 272° |
| 2026-05-01 14:13 | 51.64133 | -0.51698 | 35780 ft | 447 kts | 272° |
| 2026-05-01 14:13 | 51.64812 | -0.63273 | 35772 ft | 447 kts | 272° |
| 2026-05-01 14:14 | 51.65386 | -0.73239 | 35773 ft | 447 kts | 272° |
| 2026-05-01 14:14 | 51.65953 | -0.83235 | 35757 ft | 447 kts | 272° |
| 2026-05-01 14:15 | 51.66510 | -0.93211 | 35752 ft | 447 kts | 272° |
| 2026-05-01 14:15 | 51.67054 | -1.03180 | 35760 ft | 447 kts | 272° |
| 2026-05-01 14:16 | 51.67588 | -1.13091 | 35751 ft | 446 kts | 272° |
| 2026-05-01 14:16 | 51.68119 | -1.23065 | 35746 ft | 446 kts | 272° |
| 2026-05-01 14:17 | 51.68641 | -1.33037 | 35753 ft | 447 kts | 272° |
| 2026-05-01 14:17 | 51.69156 | -1.43012 | 35751 ft | 446 kts | 272° |
| 2026-05-01 14:18 | 51.69661 | -1.52993 | 35749 ft | 446 kts | 272° |
| 2026-05-01 14:18 | 51.70072 | -1.61271 | 35749 ft | 445 kts | 272° |
| 2026-05-01 14:19 | 51.70909 | -1.67811 | 35780 ft | 450 kts | 288° |
| 2026-05-01 14:19 | 51.71659 | -1.70934 | 35764 ft | 453 kts | 290° |
| 2026-05-01 14:19 | 51.74656 | -1.81829 | 35762 ft | 455 kts | 292° |
| 2026-05-01 14:20 | 51.78319 | -1.94043 | 35780 ft | 453 kts | 294° |